Time;durP1;ratioP1;P1;durP2;ratioP2;P2;SDS_P1;SDS_P2;PMS_P1;PMS_P2;Temp;Humidity;BMP_temperature;BMP_pressure;BME280_temperature;BME280_humidity;BME280_pressure;Samples;Min_cycle;Max_cycle;Signal;HPM_P1;HPM_P2
2023/06/16 00:02:23;;;;;;;4.97;3.15;;;;;;;25.64;37.61;99325.59;4484055;32;34683;-60
2023/06/16 00:04:52;;;;;;;5.18;3.08;;;;;;;25.64;37.63;99325.59;4483616;32;34147;-60
2023/06/16 00:07:19;;;;;;;6.10;3.22;;;;;;;25.64;37.64;99322.84;4484245;32;34791;-61
2023/06/16 00:09:47;;;;;;;4.45;2.80;;;;;;;25.65;37.69;99323.69;4483968;32;33678;-60
2023/06/16 00:12:15;;;;;;;4.87;3.40;;;;;;;25.63;37.68;99318.47;4469983;32;34773;-60
2023/06/16 00:14:42;;;;;;;4.25;2.90;;;;;;;25.64;37.71;99322.84;4484211;32;33023;-60
2023/06/16 00:17:10;;;;;;;5.25;3.15;;;;;;;25.63;37.75;99321.19;4484215;32;33584;-60
2023/06/16 00:19:39;;;;;;;4.53;2.70;;;;;;;25.64;37.81;99317.38;4484027;32;34083;-60
2023/06/16 00:22:07;;;;;;;6.17;3.20;;;;;;;25.64;37.83;99316.56;4484188;32;34001;-60
2023/06/16 00:24:35;;;;;;;6.95;3.33;;;;;;;25.63;37.83;99313.00;4483917;32;33160;-58
2023/06/16 00:27:03;;;;;;;5.15;2.83;;;;;;;25.63;37.80;99313.00;4483460;32;33745;-59
2023/06/16 00:29:30;;;;;;;5.30;3.05;;;;;;;25.62;37.85;99314.09;4483773;32;33647;-60
2023/06/16 00:31:58;;;;;;;5.97;3.03;;;;;;;25.62;37.86;99308.63;4468034;32;35245;-60
2023/06/16 00:34:25;;;;;;;7.03;3.00;;;;;;;25.63;37.87;99310.28;4468495;32;33344;-60
2023/06/16 00:36:54;;;;;;;4.32;3.00;;;;;;;25.61;37.96;99301.53;4468102;32;34055;-60
2023/06/16 00:39:21;;;;;;;4.90;3.00;;;;;;;25.64;37.97;99313.84;4467787;32;34535;-67
2023/06/16 00:41:49;;;;;;;7.35;3.42;;;;;;;25.62;37.98;99303.16;4468141;32;33924;-60
2023/06/16 00:44:16;;;;;;;5.57;2.95;;;;;;;25.61;37.99;99301.53;4468050;32;33368;-60
2023/06/16 00:46:44;;;;;;;5.90;3.08;;;;;;;25.61;37.97;99298.78;4467911;32;33515;-55
2023/06/16 00:49:12;;;;;;;5.40;3.30;;;;;;;25.61;38.01;99300.69;4468002;32;33983;-60
2023/06/16 00:51:40;;;;;;;4.22;2.85;;;;;;;25.60;38.00;99297.13;4467815;32;33442;-60
2023/06/16 00:54:09;;;;;;;5.40;3.30;;;;;;;25.61;37.99;99300.69;4453912;32;33339;-60
2023/06/16 00:56:38;;;;;;;4.43;2.92;;;;;;;25.61;38.00;99303.44;4444151;32;34026;-61
2023/06/16 00:59:06;;;;;;;5.05;3.22;;;;;;;25.62;37.99;99296.88;4453665;32;34456;-61
2023/06/16 01:01:34;;;;;;;6.00;3.40;;;;;;;25.61;38.00;99290.59;4467796;32;34513;-60
2023/06/16 01:04:02;;;;;;;4.35;2.80;;;;;;;25.60;38.03;99294.41;4467704;32;34172;-60
2023/06/16 01:06:36;;;;;;;5.25;3.10;;;;;;;25.61;38.01;99287.03;4467308;32;33920;-60
2023/06/16 01:09:21;;;;;;;5.05;3.10;;;;;;;25.61;38.01;99293.31;4467627;32;33760;-60
2023/06/16 01:12:11;;;;;;;5.65;3.00;;;;;;;25.61;37.98;99285.13;4467453;32;34493;-60
2023/06/16 01:14:51;;;;;;;5.10;2.75;;;;;;;25.59;38.07;99289.19;4455751;32;33334;-60
2023/06/16 01:17:21;;;;;;;6.53;3.33;;;;;;;25.60;38.05;99283.47;4455984;32;34850;-60
2023/06/16 01:19:57;;;;;;;4.43;3.05;;;;;;;25.59;38.07;99287.28;4455976;32;34762;-60
2023/06/16 01:22:51;;;;;;;5.28;3.37;;;;;;;25.57;38.09;99281.25;4455920;32;33940;-59
2023/06/16 01:25:22;;;;;;;5.93;3.25;;;;;;;25.61;38.04;99287.84;4455972;32;33733;-60
2023/06/16 01:27:51;;;;;;;5.70;3.40;;;;;;;25.57;38.14;99278.50;4455522;32;33854;-62
2023/06/16 01:30:21;;;;;;;5.53;3.33;;;;;;;25.58;38.25;99273.88;4460568;32;34834;-60
2023/06/16 01:32:52;;;;;;;5.93;3.00;;;;;;;25.59;38.31;99275.53;4458664;32;33885;-60
2023/06/16 01:35:20;;;;;;;5.85;3.03;;;;;;;25.60;38.41;99274.44;4471221;32;33569;-59
2023/06/16 01:37:50;;;;;;;4.22;2.80;;;;;;;25.60;38.37;99268.97;4485029;32;33991;-52
2023/06/16 01:40:18;;;;;;;5.45;3.50;;;;;;;25.59;38.40;99268.16;4470969;32;34091;-58
2023/06/16 01:42:49;;;;;;;5.37;3.12;;;;;;;25.60;38.41;99267.09;4471245;32;34609;-60
2023/06/16 01:45:17;;;;;;;4.70;2.60;;;;;;;25.59;38.42;99270.88;4485185;32;33361;-60
2023/06/16 01:47:44;;;;;;;4.72;2.80;;;;;;;25.59;38.42;99268.16;4471096;32;33743;-60
2023/06/16 01:50:12;;;;;;;4.97;3.33;;;;;;;25.60;38.42;99267.09;4470979;32;34884;-60
2023/06/16 01:52:40;;;;;;;5.93;2.95;;;;;;;25.60;38.43;99267.09;4485272;32;33658;-60
2023/06/16 01:55:08;;;;;;;5.12;2.95;;;;;;;25.60;38.42;99266.22;4470728;32;33093;-59
2023/06/16 01:57:35;;;;;;;6.10;3.28;;;;;;;25.60;38.42;99271.69;4470681;32;33849;-60
2023/06/16 02:00:19;;;;;;;5.22;3.10;;;;;;;25.60;38.42;99272.56;4458310;32;33639;-60
2023/06/16 02:02:53;;;;;;;6.50;3.85;;;;;;;25.61;38.37;99268.72;4471029;32;34121;-60
2023/06/16 02:05:23;;;;;;;4.80;2.72;;;;;;;25.61;38.36;99266.00;4470741;32;33638;-60
2023/06/16 02:07:52;;;;;;;4.57;3.15;;;;;;;25.60;38.37;99267.09;4471000;32;34571;-60
2023/06/16 02:10:20;;;;;;;5.10;3.12;;;;;;;25.60;38.34;99267.09;4458202;32;34688;-60
2023/06/16 02:12:48;;;;;;;6.95;3.58;;;;;;;25.60;38.34;99269.81;4458123;32;34585;-62
2023/06/16 02:15:17;;;;;;;4.78;3.05;;;;;;;25.60;38.36;99267.09;4458077;32;33438;-60
2023/06/16 02:17:45;;;;;;;5.62;3.50;;;;;;;25.60;38.37;99261.63;4484960;32;34003;-56
2023/06/16 02:20:13;;;;;;;4.37;2.83;;;;;;;25.61;38.34;99263.28;4484852;32;33909;-60
2023/06/16 02:22:41;;;;;;;4.62;2.92;;;;;;;25.60;38.34;99267.09;4484984;32;33646;-60
2023/06/16 02:25:08;;;;;;;6.95;3.03;;;;;;;25.59;38.31;99268.16;4484980;32;33082;-61
2023/06/16 02:27:36;;;;;;;5.68;2.67;;;;;;;25.60;38.31;99264.34;4497150;31;33717;-60
2023/06/16 02:30:04;;;;;;;4.78;2.97;;;;;;;25.60;38.32;99266.22;4500541;31;34710;-60
2023/06/16 02:32:34;;;;;;;4.30;2.92;;;;;;;25.60;38.33;99269.81;4500682;31;34550;-60
2023/06/16 02:35:04;;;;;;;5.22;2.80;;;;;;;25.60;38.33;99278.03;4500931;31;33364;-61
2023/06/16 02:37:34;;;;;;;6.55;3.22;;;;;;;25.60;38.41;99272.56;4486676;31;33775;-61
2023/06/16 02:40:05;;;;;;;6.85;3.40;;;;;;;25.59;38.42;99262.69;4500537;31;34128;-61
2023/06/16 02:42:33;;;;;;;6.30;3.00;;;;;;;25.60;38.41;99264.34;4500578;31;34727;-55
2023/06/16 02:45:01;;;;;;;5.55;3.10;;;;;;;25.60;38.39;99271.69;4500685;31;34156;-60
2023/06/16 02:47:30;;;;;;;5.25;3.40;;;;;;;25.61;38.38;99265.19;4498773;31;33689;-59
2023/06/16 02:49:58;;;;;;;5.12;3.25;;;;;;;25.59;38.34;99268.16;4500252;31;34827;-60
2023/06/16 02:52:26;;;;;;;6.97;3.10;;;;;;;25.59;38.33;99256.41;4500520;31;34786;-60
2023/06/16 02:54:53;;;;;;;5.05;3.05;;;;;;;25.58;38.31;99258.31;4500342;31;33635;-56
2023/06/16 02:57:21;;;;;;;5.93;3.10;;;;;;;25.58;38.30;99261.03;4499401;31;33622;-60
2023/06/16 02:59:50;;;;;;;7.30;3.33;;;;;;;25.58;38.24;99252.84;4500414;31;33954;-60
2023/06/16 03:02:17;;;;;;;5.65;3.15;;;;;;;25.57;38.24;99251.19;4500427;31;33894;-60
2023/06/16 03:04:45;;;;;;;5.62;3.20;;;;;;;25.57;38.30;99256.66;4500793;31;34249;-60
2023/06/16 03:07:14;;;;;;;7.68;3.62;;;;;;;25.57;38.33;99262.13;4500689;31;33971;-60
2023/06/16 03:09:43;;;;;;;6.10;2.97;;;;;;;25.57;38.32;99264.84;4500350;31;34155;-60
2023/06/16 03:12:11;;;;;;;5.20;3.20;;;;;;;25.56;38.36;99265.94;4500717;31;33837;-60
2023/06/16 03:14:39;;;;;;;4.50;2.90;;;;;;;25.56;38.37;99260.47;4500692;31;34080;-59
2023/06/16 03:17:10;;;;;;;7.63;3.50;;;;;;;25.57;38.38;99256.66;4496536;31;34004;-60
2023/06/16 03:19:40;;;;;;;4.90;2.83;;;;;;;25.57;38.38;99258.56;4484708;32;34685;-60
2023/06/16 03:22:08;;;;;;;6.07;3.37;;;;;;;25.56;38.42;99262.37;4484880;32;33694;-60
2023/06/16 03:24:37;;;;;;;5.85;3.45;;;;;;;25.57;38.44;99264.84;4484715;32;33953;-60
2023/06/16 03:27:06;;;;;;;5.80;3.62;;;;;;;25.55;38.42;99258.81;4499445;31;34285;-60
2023/06/16 03:29:34;;;;;;;4.90;3.00;;;;;;;25.56;38.38;99263.22;4500256;31;34721;-59
2023/06/16 03:32:03;;;;;;;6.53;3.50;;;;;;;25.56;38.42;99265.12;4516431;31;33829;-58
2023/06/16 03:34:31;;;;;;;5.87;2.78;;;;;;;25.55;38.42;99274.38;4516072;31;33359;-60
2023/06/16 03:36:58;;;;;;;7.37;3.00;;;;;;;25.56;38.45;99263.22;4499033;31;34681;-67
2023/06/16 03:39:27;;;;;;;6.65;2.92;;;;;;;25.56;38.46;99270.59;4498849;31;33989;-58
2023/06/16 03:41:55;;;;;;;5.75;3.40;;;;;;;25.55;38.50;99264.25;4500394;31;33740;-60
2023/06/16 03:44:23;;;;;;;7.18;3.35;;;;;;;25.57;38.49;99262.13;4500318;31;33311;-60
2023/06/16 03:46:50;;;;;;;6.12;3.08;;;;;;;25.55;38.49;99258.81;4500115;31;33577;-60
2023/06/16 03:49:18;;;;;;;6.20;3.72;;;;;;;25.57;38.53;99267.59;4500221;31;33962;-69
2023/06/16 03:51:45;;;;;;;5.00;3.05;;;;;;;25.56;38.52;99259.66;4500265;31;33451;-64
2023/06/16 03:54:15;;;;;;;4.93;3.28;;;;;;;25.56;38.53;99260.47;4499226;31;33490;-61
2023/06/16 03:56:42;;;;;;;5.47;2.97;;;;;;;25.56;38.54;99263.22;4500044;31;34640;-73
2023/06/16 03:59:10;;;;;;;5.65;3.03;;;;;;;25.56;38.52;99260.47;4499831;31;34129;-61
2023/06/16 04:01:38;;;;;;;6.47;3.58;;;;;;;25.55;38.47;99261.53;4485510;31;33996;-61
2023/06/16 04:04:06;;;;;;;6.20;3.40;;;;;;;25.56;38.35;99259.66;4481450;31;33079;-73
2023/06/16 04:06:34;;;;;;;5.07;3.35;;;;;;;25.55;38.33;99253.34;4497954;31;34636;-74
2023/06/16 04:09:02;;;;;;;5.47;3.42;;;;;;;25.54;38.28;99259.88;4498321;31;33923;-72
2023/06/16 04:11:31;;;;;;;5.15;3.25;;;;;;;25.53;38.23;99252.78;4500065;31;34491;-62
2023/06/16 04:13:59;;;;;;;6.28;3.20;;;;;;;25.53;38.16;99260.97;4484236;31;34210;-72
2023/06/16 04:16:27;;;;;;;5.70;3.60;;;;;;;25.53;38.18;99263.72;4482232;32;34792;-60
2023/06/16 04:18:55;;;;;;;5.60;3.37;;;;;;;25.53;38.18;99263.72;4482026;32;33642;-62
2023/06/16 04:21:24;;;;;;;8.15;4.22;;;;;;;25.52;38.23;99266.69;4489050;31;33504;-61
2023/06/16 04:23:52;;;;;;;6.57;3.35;;;;;;;25.51;38.19;99268.59;4498110;31;33096;-61
2023/06/16 04:26:41;;;;;;;8.20;3.28;;;;;;;25.50;38.21;99261.47;4497916;31;33859;-62
2023/06/16 04:29:14;;;;;;;8.10;3.58;;;;;;;25.49;38.24;99268.03;4498264;31;34116;-61
2023/06/16 04:31:42;;;;;;;15.30;4.45;;;;;;;25.48;38.26;99266.38;4499612;31;34081;-61
2023/06/16 04:34:10;;;;;;;8.23;4.43;;;;;;;25.50;38.24;99268.84;4498206;31;34053;-61
2023/06/16 04:36:41;;;;;;;9.93;4.00;;;;;;;25.49;38.27;99267.19;4497710;31;33958;-61
2023/06/16 04:39:11;;;;;;;8.80;4.07;;;;;;;25.49;38.24;99267.19;4497438;31;34109;-61
2023/06/16 04:41:39;;;;;;;9.15;4.18;;;;;;;25.47;38.27;99270.19;4497435;31;33581;-61
2023/06/16 04:44:08;;;;;;;10.50;4.12;;;;;;;25.48;38.26;99266.38;4483296;31;33152;-65
2023/06/16 04:46:37;;;;;;;9.30;4.30;;;;;;;25.48;38.31;99266.38;4497829;31;33367;-65
2023/06/16 04:49:05;;;;;;;7.32;4.37;;;;;;;25.47;38.31;99259.25;4498294;31;33970;-61
2023/06/16 04:51:33;;;;;;;6.37;3.80;;;;;;;25.45;38.31;99256.75;4501619;31;34566;-61
2023/06/16 04:54:01;;;;;;;8.75;3.87;;;;;;;25.45;38.33;99255.94;4501279;31;34183;-61
2023/06/16 04:56:29;;;;;;;10.00;4.28;;;;;;;25.45;38.33;99259.50;4501333;31;33853;-61
2023/06/16 04:58:56;;;;;;;10.57;4.22;;;;;;;25.45;38.33;99262.22;4501515;31;34082;-61
2023/06/16 05:01:26;;;;;;;9.50;4.32;;;;;;;25.43;38.37;99256.19;4501253;31;33644;-60
2023/06/16 05:03:55;;;;;;;9.93;4.15;;;;;;;25.44;38.36;99259.75;4501373;31;33437;-61
2023/06/16 05:06:23;;;;;;;8.10;3.83;;;;;;;25.43;38.39;99264.41;4500634;31;33650;-62
2023/06/16 05:08:53;;;;;;;6.55;4.05;;;;;;;25.45;38.38;99269.59;4501612;31;34603;-61
2023/06/16 05:11:21;;;;;;;5.82;3.87;;;;;;;25.44;38.39;99265.22;4501364;31;34649;-61
2023/06/16 05:13:48;;;;;;;6.97;3.53;;;;;;;25.43;38.41;99260.84;4501182;31;33097;-61
2023/06/16 05:16:16;;;;;;;7.95;4.05;;;;;;;25.42;38.43;99267.41;4501407;31;33821;-61
2023/06/16 05:18:43;;;;;;;7.37;3.70;;;;;;;25.41;38.44;99262.97;4501203;31;34079;-73
2023/06/16 05:21:11;;;;;;;6.40;4.03;;;;;;;25.42;38.44;99267.41;4501068;31;34214;-73
2023/06/16 05:23:39;;;;;;;6.37;3.95;;;;;;;25.42;38.46;99270.13;4501509;31;33421;-74
2023/06/16 05:26:07;;;;;;;8.52;4.20;;;;;;;25.41;38.46;99265.72;4501203;31;33801;-73
2023/06/16 05:28:35;;;;;;;6.95;4.03;;;;;;;25.41;38.46;99269.31;4501331;31;35249;-75
2023/06/16 05:31:03;;;;;;;6.85;4.00;;;;;;;25.41;38.48;99273.91;4501241;31;33855;-71
2023/06/16 05:33:31;;;;;;;6.47;3.87;;;;;;;25.40;38.49;99266.81;4487288;31;33394;-73
2023/06/16 05:35:58;;;;;;;7.90;4.35;;;;;;;25.41;38.49;99268.44;4501322;31;33929;-74
2023/06/16 05:38:26;;;;;;;6.68;3.60;;;;;;;25.41;38.49;99276.63;4501125;31;34122;-71
2023/06/16 05:40:55;;;;;;;7.85;4.35;;;;;;;25.40;38.48;99278.56;4500935;31;33916;-73
2023/06/16 05:43:22;;;;;;;7.60;4.00;;;;;;;25.41;38.46;99274.75;4501159;31;33858;-70
2023/06/16 05:45:50;;;;;;;6.18;4.18;;;;;;;25.41;38.47;99273.91;4501249;31;33669;-68
2023/06/16 05:48:18;;;;;;;6.30;4.03;;;;;;;25.40;38.49;99275.81;4500995;31;33909;-70
2023/06/16 05:50:47;;;;;;;6.40;4.10;;;;;;;25.41;38.49;99279.38;4500899;31;33514;-72
2023/06/16 05:53:15;;;;;;;6.70;4.10;;;;;;;25.40;38.51;99278.56;4501270;31;33366;-73
2023/06/16 05:55:43;;;;;;;6.03;4.15;;;;;;;25.41;38.52;99274.75;4501192;31;33655;-66
2023/06/16 05:58:10;;;;;;;6.57;4.62;;;;;;;25.40;38.54;99278.56;4500654;31;34879;-74
2023/06/16 06:00:38;;;;;;;6.30;3.90;;;;;;;25.40;38.55;99277.72;4486685;31;32967;-73
2023/06/16 06:03:06;;;;;;;5.95;4.20;;;;;;;25.40;38.54;99284.00;4500738;31;33437;-73
2023/06/16 06:05:34;;;;;;;6.80;4.45;;;;;;;25.40;38.55;99284.00;4501037;31;33916;-72
2023/06/16 06:08:03;;;;;;;7.12;5.05;;;;;;;25.40;38.59;99283.19;4501151;31;34180;-73
2023/06/16 06:10:32;;;;;;;6.15;4.40;;;;;;;25.38;38.67;99279.91;4501058;31;33599;-74
2023/06/16 06:13:03;;;;;;;6.65;4.10;;;;;;;25.39;38.65;99284.28;4500631;31;34475;-69
2023/06/16 06:15:32;;;;;;;6.60;4.55;;;;;;;25.37;38.67;99281.81;4501197;31;34423;-68
2023/06/16 06:18:00;;;;;;;8.60;4.55;;;;;;;25.36;38.67;99276.56;4486719;31;33854;-72
2023/06/16 06:20:29;;;;;;;8.13;4.43;;;;;;;25.36;38.67;99279.31;4500949;31;34079;-72
2023/06/16 06:22:57;;;;;;;6.07;4.37;;;;;;;25.37;38.66;99287.25;4500849;31;34026;-72
2023/06/16 06:25:25;;;;;;;6.57;4.30;;;;;;;25.37;38.67;99283.72;4500563;31;34735;-70
2023/06/16 06:27:55;;;;;;;7.18;4.47;;;;;;;25.36;38.68;99282.03;4500592;31;34667;-61
2023/06/16 06:30:25;;;;;;;7.03;4.30;;;;;;;25.35;38.67;99283.13;4500782;31;33925;-70
2023/06/16 06:32:53;;;;;;;6.32;4.05;;;;;;;25.36;38.70;99284.78;4500559;31;34169;-66
2023/06/16 06:35:21;;;;;;;5.87;4.25;;;;;;;25.35;38.69;99281.22;4500680;31;33493;-61
2023/06/16 06:37:49;;;;;;;8.60;4.78;;;;;;;25.36;38.70;99292.97;4500856;31;34901;-73
2023/06/16 06:40:17;;;;;;;6.95;4.47;;;;;;;25.35;38.70;99296.78;4500383;31;33615;-73
2023/06/16 06:42:46;;;;;;;8.02;4.10;;;;;;;25.34;38.71;99301.41;4500930;31;32989;-73
2023/06/16 06:45:22;;;;;;;5.55;4.00;;;;;;;25.36;38.71;99303.88;4500487;31;33991;-72
2023/06/16 06:47:50;;;;;;;6.28;4.70;;;;;;;25.35;38.70;99313.97;4500578;31;34002;-74
2023/06/16 06:50:18;;;;;;;8.32;4.93;;;;;;;25.35;38.80;99299.50;4500896;31;34040;-73
2023/06/16 06:52:46;;;;;;;6.85;4.82;;;;;;;25.35;38.90;99307.69;4500798;31;34366;-74
2023/06/16 06:55:14;;;;;;;7.87;4.65;;;;;;;25.34;38.92;99308.78;4500549;31;34672;-72
2023/06/16 06:57:42;;;;;;;8.52;4.80;;;;;;;25.34;38.93;99306.87;4500517;31;34598;-72
2023/06/16 07:00:10;;;;;;;7.45;5.10;;;;;;;25.33;38.96;99313.41;4500444;31;34142;-73
2023/06/16 07:02:38;;;;;;;6.82;4.85;;;;;;;25.33;39.00;99304.41;4500487;31;33666;-74
2023/06/16 07:05:06;;;;;;;6.28;4.57;;;;;;;25.34;39.03;99311.50;4500830;31;33835;-71
2023/06/16 07:07:34;;;;;;;8.20;4.80;;;;;;;25.33;39.03;99307.97;4500282;31;33953;-74
2023/06/16 07:10:02;;;;;;;7.25;5.00;;;;;;;25.33;39.01;99313.41;4500741;31;33821;-75
2023/06/16 07:12:30;;;;;;;8.32;5.32;;;;;;;25.33;39.10;99312.59;4486000;31;33787;-63
2023/06/16 07:14:58;;;;;;;9.85;5.10;;;;;;;25.33;39.15;99298.94;4491308;31;33591;-63
2023/06/16 07:17:25;;;;;;;7.97;4.90;;;;;;;25.31;39.22;99304.62;4487080;31;35357;-73
2023/06/16 07:19:53;;;;;;;7.40;4.82;;;;;;;25.32;39.22;99310.91;4483859;31;33488;-66
2023/06/16 07:22:20;;;;;;;7.50;5.05;;;;;;;25.31;39.20;99314.72;4484352;32;33881;-71
2023/06/16 07:24:48;;;;;;;9.10;5.37;;;;;;;25.31;39.18;99314.72;4484516;31;33874;-61
2023/06/16 07:27:16;;;;;;;7.03;5.00;;;;;;;25.32;39.17;99313.66;4500490;31;33689;-62
2023/06/16 07:29:43;;;;;;;6.82;4.22;;;;;;;25.31;39.20;99315.56;4500007;31;34083;-62
2023/06/16 07:32:11;;;;;;;7.55;4.60;;;;;;;25.31;39.19;99318.28;4500267;31;33878;-63
2023/06/16 07:34:41;;;;;;;7.85;5.50;;;;;;;25.31;39.17;99317.47;4500281;31;34991;-63
2023/06/16 07:37:09;;;;;;;8.27;4.90;;;;;;;25.32;39.16;99324.56;4491171;31;33961;-63
2023/06/16 07:39:36;;;;;;;7.57;4.82;;;;;;;25.32;39.16;99321.84;4491644;31;34644;-63
2023/06/16 07:42:04;;;;;;;8.20;4.82;;;;;;;25.32;39.18;99319.12;4498254;31;33605;-62
2023/06/16 07:44:32;;;;;;;8.00;5.30;;;;;;;25.32;39.17;99321.84;4497506;31;34002;-62
2023/06/16 07:47:00;;;;;;;7.12;4.53;;;;;;;25.32;39.17;99322.69;4499833;31;33736;-61
2023/06/16 07:49:29;;;;;;;7.37;4.90;;;;;;;25.32;39.10;99317.25;4499648;31;34929;-68
2023/06/16 07:51:56;;;;;;;7.55;5.07;;;;;;;25.32;39.12;99319.97;4499635;31;33324;-62
2023/06/16 07:54:24;;;;;;;8.45;5.45;;;;;;;25.34;39.25;99317.78;4499712;31;33619;-61
2023/06/16 07:56:52;;;;;;;9.10;5.12;;;;;;;25.35;39.27;99324.09;4483747;31;33868;-63
2023/06/16 07:59:19;;;;;;;7.85;5.10;;;;;;;25.36;39.19;99328.47;4498455;31;34572;-64
2023/06/16 08:01:47;;;;;;;9.30;5.72;;;;;;;25.36;39.25;99317.53;4484804;31;34192;-63
2023/06/16 08:04:15;;;;;;;9.75;5.20;;;;;;;25.36;39.36;99320.28;4484573;32;34674;-74
2023/06/16 08:06:43;;;;;;;8.15;5.40;;;;;;;25.37;39.44;99319.22;4484581;32;33960;-74
2023/06/16 08:09:10;;;;;;;11.55;5.72;;;;;;;25.37;39.59;99319.22;4484096;32;34558;-63
2023/06/16 08:11:38;;;;;;;7.93;5.68;;;;;;;25.37;39.69;99305.56;4484217;32;34479;-64
2023/06/16 08:14:06;;;;;;;9.05;5.40;;;;;;;25.38;39.79;99315.41;4484164;32;34838;-64
2023/06/16 08:16:35;;;;;;;8.93;5.40;;;;;;;25.38;39.84;99313.50;4492235;31;34993;-62
2023/06/16 08:19:03;;;;;;;8.75;5.65;;;;;;;25.41;39.87;99312.16;4499258;31;34704;-70
2023/06/16 08:21:31;;;;;;;8.95;5.43;;;;;;;25.41;39.91;99314.87;4499475;31;32969;-70
2023/06/16 08:23:58;;;;;;;7.40;5.10;;;;;;;25.42;39.93;99308.34;4499360;31;34457;-64
2023/06/16 08:26:27;;;;;;;9.75;5.57;;;;;;;25.42;39.97;99320.09;4499376;31;33830;-61
2023/06/16 08:28:55;;;;;;;7.43;5.47;;;;;;;25.42;39.98;99311.91;4499769;31;33816;-61
2023/06/16 08:31:22;;;;;;;9.77;5.37;;;;;;;25.42;39.99;99317.38;4484797;31;33540;-75
2023/06/16 08:33:50;;;;;;;7.80;4.95;;;;;;;25.42;40.01;99306.44;4483742;31;34126;-66
2023/06/16 08:36:20;;;;;;;11.38;5.85;;;;;;;25.44;40.01;99317.13;4484693;31;34937;-68
2023/06/16 08:38:48;;;;;;;9.75;5.50;;;;;;;25.43;40.02;99310.84;4483568;31;34086;-68
2023/06/16 08:41:16;;;;;;;8.30;5.47;;;;;;;25.45;40.04;99307.84;4483529;32;33926;-76
2023/06/16 08:43:43;;;;;;;10.20;5.43;;;;;;;25.45;40.05;99307.84;4469725;32;33915;-75
2023/06/16 08:46:11;;;;;;;8.45;4.97;;;;;;;25.47;40.07;99313.06;4469549;32;33683;-63
2023/06/16 08:48:39;;;;;;;10.23;5.75;;;;;;;25.47;40.07;99313.06;4483594;32;33820;-63
2023/06/16 08:51:09;;;;;;;7.57;5.00;;;;;;;25.47;40.09;99307.59;4483015;32;34357;-70
2023/06/16 08:53:37;;;;;;;8.82;4.82;;;;;;;25.48;40.09;99303.78;4455240;32;33450;-68
2023/06/16 08:56:05;;;;;;;10.65;5.50;;;;;;;25.48;40.08;99307.34;4454844;32;34394;-68
2023/06/16 08:58:33;;;;;;;8.00;4.95;;;;;;;25.48;40.08;99306.53;4481985;32;33632;-63
2023/06/16 09:01:02;;;;;;;9.43;4.70;;;;;;;25.48;40.09;99307.34;4481844;32;32986;-62
2023/06/16 09:03:32;;;;;;;7.20;4.90;;;;;;;25.49;40.08;99308.16;4481404;32;33513;-74
2023/06/16 09:06:01;;;;;;;9.02;5.22;;;;;;;25.49;40.08;99308.16;4482693;32;33674;-67
2023/06/16 09:08:28;;;;;;;9.02;5.15;;;;;;;25.50;40.07;99312.53;4483058;32;33542;-68
2023/06/16 09:10:56;;;;;;;7.20;5.18;;;;;;;25.49;40.10;99306.25;4483443;32;33422;-64
2023/06/16 09:13:24;;;;;;;8.95;4.93;;;;;;;25.49;40.08;99310.91;4483417;32;34753;-76
2023/06/16 09:15:56;;;;;;;8.68;5.15;;;;;;;25.51;40.07;99306.00;4469320;32;34665;-63
2023/06/16 09:18:41;;;;;;;10.70;5.60;;;;;;;25.50;40.06;99299.72;4483356;32;33994;-63
2023/06/16 09:21:09;;;;;;;10.88;5.03;;;;;;;25.52;40.05;99304.94;4483284;32;33178;-70
2023/06/16 09:23:38;;;;;;;8.23;5.12;;;;;;;25.51;40.06;99303.25;4483239;32;33968;-65
2023/06/16 09:26:12;;;;;;;7.68;5.40;;;;;;;25.51;40.10;99306.84;4469206;32;33987;-69
2023/06/16 09:28:40;;;;;;;11.73;5.40;;;;;;;25.51;40.09;99306.84;4468791;32;34103;-68
2023/06/16 09:31:08;;;;;;;7.85;5.80;;;;;;;25.51;40.10;99306.84;4468762;32;35004;-64
2023/06/16 09:33:42;;;;;;;8.73;5.45;;;;;;;25.51;40.09;99301.38;4483154;32;33721;-65
2023/06/16 09:36:10;;;;;;;7.55;5.20;;;;;;;25.52;40.12;99302.22;4483065;32;33694;-74
2023/06/16 09:38:37;;;;;;;7.60;4.70;;;;;;;25.53;40.11;99301.13;4485326;32;33585;-69
2023/06/16 09:41:09;;;;;;;7.25;4.62;;;;;;;25.53;40.12;99303.84;4485504;32;33353;-71
2023/06/16 09:43:37;;;;;;;6.70;4.60;;;;;;;25.52;40.14;99302.22;4471289;32;34310;-64
2023/06/16 09:46:04;;;;;;;6.65;4.78;;;;;;;25.53;40.16;99295.66;4485256;32;33976;-72
2023/06/16 09:48:33;;;;;;;8.45;4.90;;;;;;;25.54;40.17;99297.31;4458119;32;34838;-63
2023/06/16 09:51:01;;;;;;;8.55;5.10;;;;;;;25.54;40.20;99289.12;4471330;32;33224;-73
2023/06/16 09:53:29;;;;;;;8.82;5.28;;;;;;;25.54;40.19;99292.66;4457900;32;34806;-63
2023/06/16 09:55:56;;;;;;;7.18;5.20;;;;;;;25.54;40.21;99292.66;4471119;32;33956;-69
2023/06/16 09:58:24;;;;;;;7.28;5.32;;;;;;;25.55;40.23;99285.28;4458381;32;34547;-68
2023/06/16 10:01:09;;;;;;;8.05;5.40;;;;;;;25.56;40.24;99286.97;4484994;32;34154;-63
2023/06/16 10:03:37;;;;;;;7.70;5.40;;;;;;;25.56;40.24;99279.59;4485100;32;33795;-63
2023/06/16 10:06:14;;;;;;;8.27;5.00;;;;;;;25.55;40.25;99280.66;4484982;32;34236;-66
2023/06/16 10:08:42;;;;;;;8.60;5.10;;;;;;;25.57;40.26;99272.22;4458536;32;33858;-66
2023/06/16 10:11:10;;;;;;;6.87;5.07;;;;;;;25.58;40.28;99277.44;4470939;32;34256;-63
2023/06/16 10:13:38;;;;;;;7.25;4.57;;;;;;;25.56;40.28;99271.41;4458220;32;34101;-76
2023/06/16 10:16:06;;;;;;;7.28;5.07;;;;;;;25.56;40.29;99278.78;4470840;32;33973;-63
2023/06/16 10:18:33;;;;;;;8.68;5.03;;;;;;;25.56;40.29;99276.87;4470713;32;35066;-73
2023/06/16 10:21:02;;;;;;;9.65;5.28;;;;;;;25.57;40.29;99283.97;4458145;32;34248;-64
2023/06/16 10:23:30;;;;;;;7.70;5.05;;;;;;;25.57;40.29;99283.16;4484759;32;34356;-75
2023/06/16 10:25:58;;;;;;;7.00;4.80;;;;;;;25.58;40.28;99282.06;4470854;32;34735;-76
2023/06/16 10:28:25;;;;;;;6.50;4.60;;;;;;;25.57;40.29;99278.50;4470802;32;33929;-63
2023/06/16 10:30:53;;;;;;;6.53;5.03;;;;;;;25.59;40.28;99284.53;4470540;32;32995;-64
2023/06/16 10:33:22;;;;;;;9.38;5.50;;;;;;;25.58;40.29;99282.06;4470760;32;33653;-68
2023/06/16 10:36:00;;;;;;;6.87;5.10;;;;;;;25.57;40.29;99275.78;4484895;32;33926;-67
2023/06/16 10:38:55;;;;;;;8.02;4.70;;;;;;;25.58;40.25;99271.97;4484968;32;33866;-73
2023/06/16 10:41:24;;;;;;;7.37;5.05;;;;;;;25.61;40.23;99276.09;4484602;32;33326;-68
2023/06/16 10:43:53;;;;;;;7.57;4.70;;;;;;;25.58;40.24;99277.44;4484706;32;33951;-63
2023/06/16 10:46:21;;;;;;;6.93;4.90;;;;;;;25.58;40.24;99280.16;4470937;32;33651;-66
2023/06/16 10:48:56;;;;;;;6.73;4.77;;;;;;;25.58;40.24;99271.13;4484686;32;34292;-74
2023/06/16 10:51:49;;;;;;;8.45;5.05;;;;;;;25.59;40.20;99273.59;4484838;32;33153;-67
2023/06/16 10:54:37;;;;;;;6.55;4.65;;;;;;;25.61;40.16;99276.09;4484833;32;33921;-70
2023/06/16 10:57:08;;;;;;;9.30;4.60;;;;;;;25.61;40.18;99268.72;4484589;32;33781;-63
2023/06/16 11:00:06;;;;;;;8.93;5.12;;;;;;;25.58;40.19;99269.22;4484747;32;33546;-73
2023/06/16 11:02:35;;;;;;;6.97;4.75;;;;;;;25.61;40.14;99265.19;4484658;32;33326;-67
2023/06/16 11:05:07;;;;;;;6.72;4.60;;;;;;;25.58;40.19;99258.31;4484724;32;34501;-62
2023/06/16 11:08:05;;;;;;;6.35;4.85;;;;;;;25.60;40.16;99261.63;4484501;32;33868;-70
2023/06/16 11:10:53;;;;;;;7.75;5.45;;;;;;;25.60;40.12;99263.50;4484718;32;34964;-63
2023/06/16 11:13:25;;;;;;;7.62;5.35;;;;;;;25.61;40.13;99262.44;4484719;32;34330;-70
2023/06/16 11:15:56;;;;;;;8.02;5.30;;;;;;;25.59;40.17;99262.69;4470376;32;34741;-63
2023/06/16 11:18:28;;;;;;;7.20;5.07;;;;;;;25.59;40.15;99262.69;4484675;32;34874;-76
2023/06/16 11:20:56;;;;;;;8.80;5.15;;;;;;;25.59;40.16;99264.59;4484572;32;34592;-69
2023/06/16 11:23:24;;;;;;;7.18;5.03;;;;;;;25.60;40.14;99261.63;4484317;32;33453;-63
2023/06/16 11:25:52;;;;;;;7.07;5.30;;;;;;;25.60;40.13;99264.34;4484882;32;34469;-67
2023/06/16 11:28:20;;;;;;;10.02;5.30;;;;;;;25.60;40.12;99258.91;4457832;32;33761;-64
2023/06/16 11:30:48;;;;;;;6.40;4.68;;;;;;;25.61;40.09;99257.81;4484360;32;33721;-77
2023/06/16 11:33:16;;;;;;;6.97;4.75;;;;;;;25.61;40.06;99255.06;4484511;32;33429;-63
2023/06/16 11:35:43;;;;;;;7.57;5.18;;;;;;;25.61;40.05;99252.34;4470308;32;33905;-70
2023/06/16 11:38:11;;;;;;;6.95;4.87;;;;;;;25.61;40.02;99246.87;4484331;32;33931;-63
2023/06/16 11:40:41;;;;;;;6.70;5.03;;;;;;;25.62;39.96;99243.06;4484344;32;34563;-69
2023/06/16 11:43:08;;;;;;;6.55;5.07;;;;;;;25.63;39.94;99241.16;4470290;32;33152;-67
2023/06/16 11:45:36;;;;;;;6.90;4.97;;;;;;;25.64;39.91;99240.06;4484311;32;34189;-74